sensor_id;sensor_type;location;lat;lon;timestamp;P1;durP1;ratioP1;P2;durP2;ratioP2
19965;SDS011;10144;50.874;4.762;2023-05-10T00:01:55;26.13;;;8.70;;
19965;SDS011;10144;50.874;4.762;2023-05-10T00:04:21;22.02;;;7.97;;
19965;SDS011;10144;50.874;4.762;2023-05-10T00:06:50;29.33;;;8.90;;
19965;SDS011;10144;50.874;4.762;2023-05-10T00:12:22;23.75;;;8.68;;
19965;SDS011;10144;50.874;4.762;2023-05-10T00:14:48;25.17;;;8.70;;
19965;SDS011;10144;50.874;4.762;2023-05-10T00:17:27;25.92;;;8.50;;
19965;SDS011;10144;50.874;4.762;2023-05-10T00:25:01;28.80;;;9.35;;
19965;SDS011;10144;50.874;4.762;2023-05-10T00:27:27;26.55;;;8.98;;
19965;SDS011;10144;50.874;4.762;2023-05-10T00:29:56;27.20;;;9.85;;
19965;SDS011;10144;50.874;4.762;2023-05-10T00:32:22;28.60;;;9.13;;
19965;SDS011;10144;50.874;4.762;2023-05-10T00:37:37;25.65;;;9.65;;
19965;SDS011;10144;50.874;4.762;2023-05-10T00:40:09;35.13;;;10.95;;
19965;SDS011;10144;50.874;4.762;2023-05-10T00:42:35;23.67;;;9.57;;
19965;SDS011;10144;50.874;4.762;2023-05-10T00:45:11;24.70;;;10.70;;
19965;SDS011;10144;50.874;4.762;2023-05-10T00:47:43;28.05;;;10.65;;
19965;SDS011;10144;50.874;4.762;2023-05-10T00:53:31;30.55;;;9.93;;
19965;SDS011;10144;50.874;4.762;2023-05-10T00:56:16;25.45;;;10.07;;
19965;SDS011;10144;50.874;4.762;2023-05-10T00:58:48;25.73;;;10.32;;
19965;SDS011;10144;50.874;4.762;2023-05-10T01:03:47;30.58;;;10.80;;
19965;SDS011;10144;50.874;4.762;2023-05-10T01:08:42;27.52;;;11.13;;
19965;SDS011;10144;50.874;4.762;2023-05-10T01:11:13;30.88;;;10.70;;
19965;SDS011;10144;50.874;4.762;2023-05-10T01:13:49;31.77;;;11.32;;
19965;SDS011;10144;50.874;4.762;2023-05-10T01:16:25;34.03;;;10.60;;
19965;SDS011;10144;50.874;4.762;2023-05-10T01:18:52;33.70;;;10.80;;
19965;SDS011;10144;50.874;4.762;2023-05-10T01:21:29;25.38;;;10.10;;
19965;SDS011;10144;50.874;4.762;2023-05-10T01:24:14;27.95;;;10.75;;
19965;SDS011;10144;50.874;4.762;2023-05-10T01:33:01;29.35;;;10.80;;
19965;SDS011;10144;50.874;4.762;2023-05-10T01:39:02;41.42;;;11.38;;
19965;SDS011;10144;50.874;4.762;2023-05-10T01:50:15;34.30;;;11.40;;
19965;SDS011;10144;50.874;4.762;2023-05-10T01:52:51;33.95;;;11.63;;
19965;SDS011;10144;50.874;4.762;2023-05-10T01:58:20;35.42;;;11.75;;
19965;SDS011;10144;50.874;4.762;2023-05-10T02:00:53;34.28;;;12.52;;
19965;SDS011;10144;50.874;4.762;2023-05-10T02:05:55;34.50;;;12.35;;
19965;SDS011;10144;50.874;4.762;2023-05-10T02:08:23;35.67;;;12.20;;
19965;SDS011;10144;50.874;4.762;2023-05-10T02:10:56;31.17;;;11.95;;
19965;SDS011;10144;50.874;4.762;2023-05-10T02:13:26;38.30;;;12.15;;
19965;SDS011;10144;50.874;4.762;2023-05-10T02:15:54;32.38;;;12.35;;
19965;SDS011;10144;50.874;4.762;2023-05-10T02:20:52;42.08;;;13.15;;
19965;SDS011;10144;50.874;4.762;2023-05-10T02:26:06;35.15;;;13.45;;
19965;SDS011;10144;50.874;4.762;2023-05-10T02:28:39;39.80;;;13.48;;
19965;SDS011;10144;50.874;4.762;2023-05-10T02:36:16;33.95;;;13.07;;
19965;SDS011;10144;50.874;4.762;2023-05-10T02:38:43;41.58;;;14.10;;
19965;SDS011;10144;50.874;4.762;2023-05-10T02:41:18;38.85;;;13.77;;
19965;SDS011;10144;50.874;4.762;2023-05-10T02:43:50;47.00;;;14.57;;
19965;SDS011;10144;50.874;4.762;2023-05-10T02:46:26;35.80;;;13.65;;
19965;SDS011;10144;50.874;4.762;2023-05-10T02:54:29;41.83;;;13.60;;
19965;SDS011;10144;50.874;4.762;2023-05-10T02:59:35;44.17;;;14.32;;
19965;SDS011;10144;50.874;4.762;2023-05-10T03:04:29;39.78;;;13.98;;
19965;SDS011;10144;50.874;4.762;2023-05-10T03:06:58;35.92;;;13.00;;
19965;SDS011;10144;50.874;4.762;2023-05-10T03:09:30;35.83;;;13.98;;
19965;SDS011;10144;50.874;4.762;2023-05-10T03:21:11;36.10;;;14.20;;
19965;SDS011;10144;50.874;4.762;2023-05-10T03:26:26;40.83;;;13.48;;
19965;SDS011;10144;50.874;4.762;2023-05-10T03:31:26;36.75;;;13.73;;
19965;SDS011;10144;50.874;4.762;2023-05-10T03:34:00;37.63;;;13.30;;
19965;SDS011;10144;50.874;4.762;2023-05-10T03:36:29;38.38;;;12.80;;
19965;SDS011;10144;50.874;4.762;2023-05-10T03:38:57;35.92;;;13.18;;
19965;SDS011;10144;50.874;4.762;2023-05-10T03:41:22;34.50;;;12.68;;
19965;SDS011;10144;50.874;4.762;2023-05-10T03:43:51;42.65;;;13.02;;
19965;SDS011;10144;50.874;4.762;2023-05-10T03:46:22;35.80;;;12.98;;
19965;SDS011;10144;50.874;4.762;2023-05-10T03:48:55;40.08;;;12.25;;
19965;SDS011;10144;50.874;4.762;2023-05-10T03:51:21;36.67;;;12.77;;
19965;SDS011;10144;50.874;4.762;2023-05-10T03:53:50;31.40;;;11.55;;
19965;SDS011;10144;50.874;4.762;2023-05-10T04:01:14;30.05;;;10.98;;
19965;SDS011;10144;50.874;4.762;2023-05-10T04:06:43;29.00;;;10.05;;
19965;SDS011;10144;50.874;4.762;2023-05-10T04:09:12;32.17;;;10.00;;
19965;SDS011;10144;50.874;4.762;2023-05-10T04:11:43;30.63;;;10.65;;
19965;SDS011;10144;50.874;4.762;2023-05-10T04:14:24;31.33;;;11.63;;
19965;SDS011;10144;50.874;4.762;2023-05-10T04:16:50;30.83;;;11.82;;
19965;SDS011;10144;50.874;4.762;2023-05-10T04:22:25;44.80;;;15.63;;
19965;SDS011;10144;50.874;4.762;2023-05-10T04:24:52;43.15;;;15.25;;
19965;SDS011;10144;50.874;4.762;2023-05-10T04:27:19;44.38;;;14.75;;
19965;SDS011;10144;50.874;4.762;2023-05-10T04:30:00;49.00;;;15.73;;
19965;SDS011;10144;50.874;4.762;2023-05-10T04:32:36;45.38;;;15.30;;
19965;SDS011;10144;50.874;4.762;2023-05-10T04:35:05;47.78;;;15.30;;
19965;SDS011;10144;50.874;4.762;2023-05-10T04:37:41;58.00;;;16.95;;
19965;SDS011;10144;50.874;4.762;2023-05-10T04:53:43;53.80;;;16.88;;
19965;SDS011;10144;50.874;4.762;2023-05-10T04:56:14;53.00;;;16.35;;
19965;SDS011;10144;50.874;4.762;2023-05-10T04:58:41;55.53;;;17.73;;
19965;SDS011;10144;50.874;4.762;2023-05-10T05:01:15;55.05;;;17.02;;
19965;SDS011;10144;50.874;4.762;2023-05-10T05:06:10;54.63;;;16.80;;
19965;SDS011;10144;50.874;4.762;2023-05-10T05:08:39;51.58;;;16.55;;
19965;SDS011;10144;50.874;4.762;2023-05-10T05:11:06;53.67;;;17.45;;
19965;SDS011;10144;50.874;4.762;2023-05-10T05:13:32;55.65;;;18.13;;
19965;SDS011;10144;50.874;4.762;2023-05-10T05:16:00;55.30;;;18.15;;
19965;SDS011;10144;50.874;4.762;2023-05-10T05:18:31;57.20;;;18.08;;
19965;SDS011;10144;50.874;4.762;2023-05-10T05:23:29;66.65;;;19.48;;
19965;SDS011;10144;50.874;4.762;2023-05-10T05:28:23;62.33;;;18.67;;
19965;SDS011;10144;50.874;4.762;2023-05-10T05:33:18;69.35;;;20.17;;
19965;SDS011;10144;50.874;4.762;2023-05-10T05:35:49;65.18;;;19.88;;
19965;SDS011;10144;50.874;4.762;2023-05-10T05:38:16;60.10;;;18.63;;
19965;SDS011;10144;50.874;4.762;2023-05-10T05:43:14;74.82;;;19.13;;
19965;SDS011;10144;50.874;4.762;2023-05-10T05:45:46;57.90;;;18.20;;
19965;SDS011;10144;50.874;4.762;2023-05-10T05:48:15;63.85;;;18.92;;
19965;SDS011;10144;50.874;4.762;2023-05-10T05:50:43;58.70;;;19.40;;
19965;SDS011;10144;50.874;4.762;2023-05-10T05:55:37;56.42;;;19.35;;
19965;SDS011;10144;50.874;4.762;2023-05-10T06:00:32;63.42;;;19.88;;
19965;SDS011;10144;50.874;4.762;2023-05-10T06:03:01;62.20;;;18.55;;
19965;SDS011;10144;50.874;4.762;2023-05-10T06:05:33;58.17;;;18.60;;
19965;SDS011;10144;50.874;4.762;2023-05-10T06:08:02;61.25;;;19.80;;
19965;SDS011;10144;50.874;4.762;2023-05-10T06:10:27;58.63;;;18.35;;
19965;SDS011;10144;50.874;4.762;2023-05-10T06:12:56;61.78;;;18.80;;
19965;SDS011;10144;50.874;4.762;2023-05-10T06:20:20;57.47;;;17.83;;
19965;SDS011;10144;50.874;4.762;2023-05-10T06:22:49;58.40;;;17.33;;
19965;SDS011;10144;50.874;4.762;2023-05-10T06:25:17;50.92;;;17.40;;
19965;SDS011;10144;50.874;4.762;2023-05-10T06:27:46;56.03;;;17.50;;
19965;SDS011;10144;50.874;4.762;2023-05-10T06:30:18;59.88;;;18.92;;
19965;SDS011;10144;50.874;4.762;2023-05-10T06:32:44;58.28;;;19.08;;
19965;SDS011;10144;50.874;4.762;2023-05-10T06:35:12;52.97;;;18.75;;
19965;SDS011;10144;50.874;4.762;2023-05-10T06:37:42;57.08;;;18.27;;
19965;SDS011;10144;50.874;4.762;2023-05-10T06:40:10;57.03;;;19.13;;
19965;SDS011;10144;50.874;4.762;2023-05-10T06:42:39;53.08;;;19.02;;
19965;SDS011;10144;50.874;4.762;2023-05-10T06:45:04;52.90;;;19.15;;
19965;SDS011;10144;50.874;4.762;2023-05-10T06:47:30;53.15;;;19.08;;
19965;SDS011;10144;50.874;4.762;2023-05-10T06:49:56;52.80;;;18.80;;
19965;SDS011;10144;50.874;4.762;2023-05-10T06:52:22;53.63;;;19.38;;
19965;SDS011;10144;50.874;4.762;2023-05-10T06:54:48;55.30;;;18.58;;
19965;SDS011;10144;50.874;4.762;2023-05-10T06:57:13;51.97;;;18.90;;
19965;SDS011;10144;50.874;4.762;2023-05-10T06:59:39;53.95;;;18.02;;
19965;SDS011;10144;50.874;4.762;2023-05-10T07:02:05;31.42;;;11.32;;
19965;SDS011;10144;50.874;4.762;2023-05-10T07:04:31;24.38;;;9.45;;
19965;SDS011;10144;50.874;4.762;2023-05-10T07:06:56;24.05;;;9.32;;
19965;SDS011;10144;50.874;4.762;2023-05-10T07:09:22;17.20;;;6.28;;
19965;SDS011;10144;50.874;4.762;2023-05-10T07:11:49;14.80;;;6.22;;
19965;SDS011;10144;50.874;4.762;2023-05-10T07:14:15;14.80;;;6.47;;
19965;SDS011;10144;50.874;4.762;2023-05-10T07:16:40;13.07;;;5.78;;
19965;SDS011;10144;50.874;4.762;2023-05-10T07:19:06;12.18;;;4.78;;
19965;SDS011;10144;50.874;4.762;2023-05-10T07:21:32;7.80;;;3.90;;
19965;SDS011;10144;50.874;4.762;2023-05-10T07:23:57;7.82;;;3.47;;
19965;SDS011;10144;50.874;4.762;2023-05-10T07:26:23;13.50;;;4.68;;
19965;SDS011;10144;50.874;4.762;2023-05-10T07:28:49;11.60;;;5.00;;
19965;SDS011;10144;50.874;4.762;2023-05-10T07:31:14;11.18;;;3.67;;
19965;SDS011;10144;50.874;4.762;2023-05-10T07:33:40;13.05;;;4.20;;
19965;SDS011;10144;50.874;4.762;2023-05-10T07:36:06;8.57;;;3.65;;
19965;SDS011;10144;50.874;4.762;2023-05-10T07:38:31;9.20;;;3.92;;
19965;SDS011;10144;50.874;4.762;2023-05-10T07:40:57;8.40;;;3.90;;
19965;SDS011;10144;50.874;4.762;2023-05-10T07:43:22;11.88;;;4.38;;
19965;SDS011;10144;50.874;4.762;2023-05-10T07:45:48;10.23;;;4.97;;
19965;SDS011;10144;50.874;4.762;2023-05-10T07:48:15;11.35;;;4.47;;
19965;SDS011;10144;50.874;4.762;2023-05-10T07:50:40;9.80;;;4.25;;
19965;SDS011;10144;50.874;4.762;2023-05-10T07:53:06;10.32;;;4.18;;
19965;SDS011;10144;50.874;4.762;2023-05-10T07:55:32;24.13;;;3.70;;
19965;SDS011;10144;50.874;4.762;2023-05-10T07:57:58;9.80;;;3.50;;
19965;SDS011;10144;50.874;4.762;2023-05-10T08:00:26;8.73;;;3.30;;
19965;SDS011;10144;50.874;4.762;2023-05-10T08:02:52;9.77;;;3.10;;
19965;SDS011;10144;50.874;4.762;2023-05-10T08:05:17;8.90;;;3.42;;
19965;SDS011;10144;50.874;4.762;2023-05-10T08:07:44;10.57;;;4.03;;
19965;SDS011;10144;50.874;4.762;2023-05-10T08:10:11;9.05;;;3.97;;
19965;SDS011;10144;50.874;4.762;2023-05-10T08:12:37;8.93;;;4.03;;
19965;SDS011;10144;50.874;4.762;2023-05-10T08:15:03;15.30;;;5.60;;
19965;SDS011;10144;50.874;4.762;2023-05-10T08:17:29;18.13;;;6.25;;
19965;SDS011;10144;50.874;4.762;2023-05-10T08:19:55;20.08;;;7.90;;
19965;SDS011;10144;50.874;4.762;2023-05-10T08:22:20;20.23;;;7.72;;
19965;SDS011;10144;50.874;4.762;2023-05-10T08:24:46;25.02;;;8.48;;
19965;SDS011;10144;50.874;4.762;2023-05-10T08:27:12;22.92;;;9.02;;
19965;SDS011;10144;50.874;4.762;2023-05-10T08:29:37;30.73;;;9.57;;
19965;SDS011;10144;50.874;4.762;2023-05-10T08:32:03;28.35;;;10.10;;
19965;SDS011;10144;50.874;4.762;2023-05-10T08:34:29;26.50;;;9.77;;
19965;SDS011;10144;50.874;4.762;2023-05-10T08:36:56;25.50;;;9.55;;
19965;SDS011;10144;50.874;4.762;2023-05-10T08:39:21;34.50;;;10.27;;
19965;SDS011;10144;50.874;4.762;2023-05-10T08:41:48;27.23;;;9.52;;
19965;SDS011;10144;50.874;4.762;2023-05-10T08:44:17;25.77;;;9.52;;
19965;SDS011;10144;50.874;4.762;2023-05-10T08:46:46;24.85;;;9.60;;
19965;SDS011;10144;50.874;4.762;2023-05-10T08:49:16;27.10;;;9.05;;
19965;SDS011;10144;50.874;4.762;2023-05-10T08:51:44;27.85;;;10.00;;
19965;SDS011;10144;50.874;4.762;2023-05-10T08:54:16;22.73;;;9.25;;
19965;SDS011;10144;50.874;4.762;2023-05-10T08:56:42;20.80;;;8.27;;
19965;SDS011;10144;50.874;4.762;2023-05-10T08:59:08;24.35;;;8.45;;
19965;SDS011;10144;50.874;4.762;2023-05-10T09:01:35;23.42;;;9.02;;
19965;SDS011;10144;50.874;4.762;2023-05-10T09:04:02;25.85;;;8.02;;
19965;SDS011;10144;50.874;4.762;2023-05-10T09:06:29;18.55;;;7.72;;
19965;SDS011;10144;50.874;4.762;2023-05-10T09:08:54;21.00;;;8.35;;
19965;SDS011;10144;50.874;4.762;2023-05-10T09:11:20;19.90;;;7.72;;
19965;SDS011;10144;50.874;4.762;2023-05-10T09:13:47;22.77;;;8.13;;
19965;SDS011;10144;50.874;4.762;2023-05-10T09:16:14;25.60;;;7.90;;
19965;SDS011;10144;50.874;4.762;2023-05-10T09:18:40;21.08;;;8.00;;
19965;SDS011;10144;50.874;4.762;2023-05-10T09:21:06;19.30;;;7.22;;
19965;SDS011;10144;50.874;4.762;2023-05-10T09:23:31;29.40;;;10.48;;
19965;SDS011;10144;50.874;4.762;2023-05-10T09:26:06;17.88;;;7.20;;
19965;SDS011;10144;50.874;4.762;2023-05-10T09:28:53;14.27;;;6.38;;
19965;SDS011;10144;50.874;4.762;2023-05-10T09:31:20;16.17;;;6.88;;
19965;SDS011;10144;50.874;4.762;2023-05-10T09:33:47;16.15;;;6.10;;
19965;SDS011;10144;50.874;4.762;2023-05-10T09:36:14;19.95;;;6.93;;
19965;SDS011;10144;50.874;4.762;2023-05-10T09:38:46;14.25;;;5.53;;
19965;SDS011;10144;50.874;4.762;2023-05-10T09:41:23;12.63;;;5.20;;
19965;SDS011;10144;50.874;4.762;2023-05-10T09:43:50;14.27;;;5.10;;
19965;SDS011;10144;50.874;4.762;2023-05-10T09:46:20;10.57;;;4.45;;
19965;SDS011;10144;50.874;4.762;2023-05-10T09:48:46;13.40;;;5.32;;
19965;SDS011;10144;50.874;4.762;2023-05-10T09:51:21;9.52;;;4.35;;
19965;SDS011;10144;50.874;4.762;2023-05-10T09:53:48;11.85;;;4.65;;
19965;SDS011;10144;50.874;4.762;2023-05-10T09:56:33;10.05;;;4.32;;
19965;SDS011;10144;50.874;4.762;2023-05-10T09:59:03;8.10;;;4.00;;
19965;SDS011;10144;50.874;4.762;2023-05-10T10:01:30;11.07;;;3.78;;
19965;SDS011;10144;50.874;4.762;2023-05-10T10:03:56;10.27;;;3.58;;
19965;SDS011;10144;50.874;4.762;2023-05-10T10:06:23;8.65;;;3.63;;
19965;SDS011;10144;50.874;4.762;2023-05-10T10:08:49;5.65;;;2.90;;
19965;SDS011;10144;50.874;4.762;2023-05-10T10:11:15;5.97;;;2.78;;
19965;SDS011;10144;50.874;4.762;2023-05-10T10:13:41;8.05;;;2.83;;
19965;SDS011;10144;50.874;4.762;2023-05-10T10:16:08;7.03;;;2.80;;
19965;SDS011;10144;50.874;4.762;2023-05-10T10:18:34;5.75;;;2.63;;
19965;SDS011;10144;50.874;4.762;2023-05-10T10:21:07;5.05;;;2.65;;
19965;SDS011;10144;50.874;4.762;2023-05-10T10:23:36;5.68;;;2.80;;
19965;SDS011;10144;50.874;4.762;2023-05-10T10:26:02;5.65;;;2.35;;
19965;SDS011;10144;50.874;4.762;2023-05-10T10:28:48;4.10;;;2.35;;
19965;SDS011;10144;50.874;4.762;2023-05-10T10:31:24;3.92;;;2.28;;
19965;SDS011;10144;50.874;4.762;2023-05-10T10:34:03;4.95;;;2.92;;
19965;SDS011;10144;50.874;4.762;2023-05-10T10:36:42;4.55;;;2.40;;
19965;SDS011;10144;50.874;4.762;2023-05-10T10:39:10;4.32;;;2.28;;
19965;SDS011;10144;50.874;4.762;2023-05-10T10:52:33;3.20;;;1.88;;
19965;SDS011;10144;50.874;4.762;2023-05-10T10:57:52;2.90;;;1.63;;
19965;SDS011;10144;50.874;4.762;2023-05-10T11:00:37;2.13;;;1.50;;
19965;SDS011;10144;50.874;4.762;2023-05-10T11:03:09;2.90;;;1.70;;
19965;SDS011;10144;50.874;4.762;2023-05-10T11:05:42;3.03;;;1.90;;
19965;SDS011;10144;50.874;4.762;2023-05-10T11:10:48;3.30;;;1.95;;
19965;SDS011;10144;50.874;4.762;2023-05-10T11:13:41;3.15;;;1.95;;
19965;SDS011;10144;50.874;4.762;2023-05-10T11:18:36;2.53;;;1.70;;
19965;SDS011;10144;50.874;4.762;2023-05-10T11:21:02;2.28;;;1.30;;
19965;SDS011;10144;50.874;4.762;2023-05-10T11:23:30;2.15;;;1.17;;
19965;SDS011;10144;50.874;4.762;2023-05-10T11:25:58;3.42;;;1.25;;
19965;SDS011;10144;50.874;4.762;2023-05-10T11:28:25;1.67;;;1.10;;
19965;SDS011;10144;50.874;4.762;2023-05-10T11:30:52;1.20;;;0.88;;
19965;SDS011;10144;50.874;4.762;2023-05-10T11:33:18;2.03;;;1.10;;
19965;SDS011;10144;50.874;4.762;2023-05-10T11:35:45;2.08;;;0.93;;
19965;SDS011;10144;50.874;4.762;2023-05-10T11:38:11;1.45;;;1.00;;
19965;SDS011;10144;50.874;4.762;2023-05-10T11:40:38;1.25;;;1.10;;
19965;SDS011;10144;50.874;4.762;2023-05-10T11:43:04;1.33;;;1.00;;
19965;SDS011;10144;50.874;4.762;2023-05-10T11:45:34;2.65;;;1.40;;
19965;SDS011;10144;50.874;4.762;2023-05-10T11:48:00;2.10;;;1.20;;
19965;SDS011;10144;50.874;4.762;2023-05-10T11:50:26;1.20;;;0.90;;
19965;SDS011;10144;50.874;4.762;2023-05-10T11:52:54;2.33;;;1.30;;
19965;SDS011;10144;50.874;4.762;2023-05-10T11:55:21;1.85;;;1.35;;
19965;SDS011;10144;50.874;4.762;2023-05-10T11:57:52;3.20;;;1.10;;
19965;SDS011;10144;50.874;4.762;2023-05-10T12:00:19;2.15;;;1.30;;
19965;SDS011;10144;50.874;4.762;2023-05-10T12:05:18;1.52;;;1.23;;
19965;SDS011;10144;50.874;4.762;2023-05-10T12:07:43;2.10;;;1.30;;
19965;SDS011;10144;50.874;4.762;2023-05-10T12:10:15;4.65;;;1.20;;
19965;SDS011;10144;50.874;4.762;2023-05-10T12:12:46;4.07;;;1.27;;
19965;SDS011;10144;50.874;4.762;2023-05-10T12:15:20;2.13;;;1.30;;
19965;SDS011;10144;50.874;4.762;2023-05-10T12:17:47;2.10;;;1.45;;
19965;SDS011;10144;50.874;4.762;2023-05-10T12:22:39;5.18;;;1.73;;
19965;SDS011;10144;50.874;4.762;2023-05-10T12:25:05;2.55;;;1.80;;
19965;SDS011;10144;50.874;4.762;2023-05-10T12:27:33;2.53;;;1.63;;
19965;SDS011;10144;50.874;4.762;2023-05-10T12:29:59;3.13;;;1.70;;
19965;SDS011;10144;50.874;4.762;2023-05-10T12:32:43;2.67;;;1.55;;
19965;SDS011;10144;50.874;4.762;2023-05-10T12:35:09;2.72;;;1.80;;
19965;SDS011;10144;50.874;4.762;2023-05-10T12:37:35;3.40;;;2.17;;
19965;SDS011;10144;50.874;4.762;2023-05-10T12:40:08;3.00;;;2.20;;
19965;SDS011;10144;50.874;4.762;2023-05-10T12:42:35;2.75;;;1.77;;
19965;SDS011;10144;50.874;4.762;2023-05-10T12:45:03;2.83;;;2.00;;
19965;SDS011;10144;50.874;4.762;2023-05-10T12:47:30;4.72;;;1.92;;
19965;SDS011;10144;50.874;4.762;2023-05-10T12:49:56;2.55;;;1.98;;
19965;SDS011;10144;50.874;4.762;2023-05-10T12:52:22;4.38;;;2.10;;
19965;SDS011;10144;50.874;4.762;2023-05-10T12:54:48;3.50;;;2.00;;
19965;SDS011;10144;50.874;4.762;2023-05-10T12:57:14;4.68;;;1.90;;
19965;SDS011;10144;50.874;4.762;2023-05-10T12:59:40;11.25;;;1.65;;
19965;SDS011;10144;50.874;4.762;2023-05-10T13:02:06;3.03;;;1.42;;
19965;SDS011;10144;50.874;4.762;2023-05-10T13:04:33;3.97;;;1.55;;
19965;SDS011;10144;50.874;4.762;2023-05-10T13:06:59;3.45;;;1.70;;
19965;SDS011;10144;50.874;4.762;2023-05-10T13:09:25;2.22;;;1.70;;
19965;SDS011;10144;50.874;4.762;2023-05-10T13:11:51;3.08;;;1.70;;
19965;SDS011;10144;50.874;4.762;2023-05-10T13:14:19;2.97;;;1.60;;
19965;SDS011;10144;50.874;4.762;2023-05-10T13:16:46;1.83;;;1.40;;
19965;SDS011;10144;50.874;4.762;2023-05-10T13:19:12;1.77;;;1.50;;
19965;SDS011;10144;50.874;4.762;2023-05-10T13:21:39;2.60;;;1.55;;
19965;SDS011;10144;50.874;4.762;2023-05-10T13:24:09;1.58;;;1.30;;
19965;SDS011;10144;50.874;4.762;2023-05-10T13:26:35;1.98;;;1.30;;
19965;SDS011;10144;50.874;4.762;2023-05-10T13:29:02;2.78;;;1.70;;
19965;SDS011;10144;50.874;4.762;2023-05-10T13:31:28;3.65;;;1.70;;
19965;SDS011;10144;50.874;4.762;2023-05-10T13:33:54;1.88;;;1.50;;
19965;SDS011;10144;50.874;4.762;2023-05-10T13:36:20;2.40;;;1.60;;
19965;SDS011;10144;50.874;4.762;2023-05-10T13:38:46;3.17;;;1.77;;
19965;SDS011;10144;50.874;4.762;2023-05-10T13:41:11;4.22;;;2.20;;
19965;SDS011;10144;50.874;4.762;2023-05-10T13:43:37;3.92;;;1.95;;
19965;SDS011;10144;50.874;4.762;2023-05-10T13:46:02;3.47;;;2.30;;
19965;SDS011;10144;50.874;4.762;2023-05-10T13:48:28;2.92;;;2.00;;
19965;SDS011;10144;50.874;4.762;2023-05-10T13:50:54;3.42;;;2.13;;
19965;SDS011;10144;50.874;4.762;2023-05-10T13:53:19;3.28;;;2.10;;
19965;SDS011;10144;50.874;4.762;2023-05-10T13:55:45;3.72;;;2.30;;
19965;SDS011;10144;50.874;4.762;2023-05-10T13:58:12;3.40;;;2.05;;
19965;SDS011;10144;50.874;4.762;2023-05-10T14:00:37;5.88;;;2.50;;
19965;SDS011;10144;50.874;4.762;2023-05-10T14:03:03;3.42;;;2.60;;
19965;SDS011;10144;50.874;4.762;2023-05-10T14:05:30;3.22;;;2.20;;
19965;SDS011;10144;50.874;4.762;2023-05-10T14:07:55;5.85;;;2.67;;
19965;SDS011;10144;50.874;4.762;2023-05-10T14:15:41;4.88;;;2.10;;
19965;SDS011;10144;50.874;4.762;2023-05-10T14:18:07;3.97;;;2.22;;
19965;SDS011;10144;50.874;4.762;2023-05-10T14:20:32;3.17;;;2.20;;
19965;SDS011;10144;50.874;4.762;2023-05-10T14:22:59;4.85;;;2.40;;
19965;SDS011;10144;50.874;4.762;2023-05-10T14:25:25;4.03;;;2.60;;
19965;SDS011;10144;50.874;4.762;2023-05-10T14:27:50;4.38;;;2.30;;
19965;SDS011;10144;50.874;4.762;2023-05-10T14:30:16;5.05;;;2.53;;
19965;SDS011;10144;50.874;4.762;2023-05-10T14:32:42;5.45;;;2.72;;
19965;SDS011;10144;50.874;4.762;2023-05-10T14:35:08;6.55;;;2.90;;
19965;SDS011;10144;50.874;4.762;2023-05-10T14:37:33;4.45;;;2.55;;
19965;SDS011;10144;50.874;4.762;2023-05-10T14:40:00;5.85;;;3.08;;
19965;SDS011;10144;50.874;4.762;2023-05-10T14:42:26;8.68;;;3.30;;
19965;SDS011;10144;50.874;4.762;2023-05-10T14:44:51;5.63;;;3.20;;
19965;SDS011;10144;50.874;4.762;2023-05-10T14:47:17;4.38;;;2.63;;
19965;SDS011;10144;50.874;4.762;2023-05-10T14:49:43;4.05;;;2.90;;
19965;SDS011;10144;50.874;4.762;2023-05-10T14:52:09;6.97;;;3.38;;
19965;SDS011;10144;50.874;4.762;2023-05-10T14:54:37;7.30;;;3.38;;
19965;SDS011;10144;50.874;4.762;2023-05-10T14:57:03;5.60;;;2.92;;
19965;SDS011;10144;50.874;4.762;2023-05-10T14:59:29;7.35;;;3.20;;
19965;SDS011;10144;50.874;4.762;2023-05-10T15:01:54;7.03;;;3.33;;
19965;SDS011;10144;50.874;4.762;2023-05-10T15:04:20;5.15;;;3.08;;
19965;SDS011;10144;50.874;4.762;2023-05-10T15:06:46;6.60;;;3.17;;
19965;SDS011;10144;50.874;4.762;2023-05-10T15:09:11;6.28;;;3.38;;
19965;SDS011;10144;50.874;4.762;2023-05-10T15:11:37;8.15;;;3.53;;
19965;SDS011;10144;50.874;4.762;2023-05-10T15:14:03;4.90;;;3.17;;
19965;SDS011;10144;50.874;4.762;2023-05-10T15:16:28;11.95;;;3.63;;
19965;SDS011;10144;50.874;4.762;2023-05-10T15:18:54;6.63;;;3.58;;
19965;SDS011;10144;50.874;4.762;2023-05-10T15:21:20;6.32;;;3.55;;
19965;SDS011;10144;50.874;4.762;2023-05-10T15:23:46;8.80;;;3.40;;
19965;SDS011;10144;50.874;4.762;2023-05-10T15:26:12;9.52;;;3.50;;
19965;SDS011;10144;50.874;4.762;2023-05-10T15:28:37;6.93;;;3.80;;
19965;SDS011;10144;50.874;4.762;2023-05-10T15:31:04;8.13;;;3.95;;
19965;SDS011;10144;50.874;4.762;2023-05-10T15:33:29;11.52;;;4.40;;
19965;SDS011;10144;50.874;4.762;2023-05-10T15:35:55;7.28;;;4.10;;
19965;SDS011;10144;50.874;4.762;2023-05-10T15:38:21;9.52;;;4.25;;
19965;SDS011;10144;50.874;4.762;2023-05-10T15:40:47;7.70;;;4.15;;
19965;SDS011;10144;50.874;4.762;2023-05-10T15:43:13;9.75;;;5.03;;
19965;SDS011;10144;50.874;4.762;2023-05-10T15:45:39;12.35;;;5.53;;
19965;SDS011;10144;50.874;4.762;2023-05-10T15:48:04;12.18;;;5.82;;
19965;SDS011;10144;50.874;4.762;2023-05-10T15:50:30;14.25;;;5.88;;
19965;SDS011;10144;50.874;4.762;2023-05-10T15:53:01;11.88;;;5.65;;
19965;SDS011;10144;50.874;4.762;2023-05-10T15:55:27;13.43;;;6.55;;
19965;SDS011;10144;50.874;4.762;2023-05-10T15:57:53;17.42;;;6.72;;
19965;SDS011;10144;50.874;4.762;2023-05-10T16:00:21;12.85;;;6.63;;
19965;SDS011;10144;50.874;4.762;2023-05-10T16:02:47;14.95;;;6.30;;
19965;SDS011;10144;50.874;4.762;2023-05-10T16:05:13;13.73;;;5.47;;
19965;SDS011;10144;50.874;4.762;2023-05-10T16:07:38;12.15;;;5.60;;
19965;SDS011;10144;50.874;4.762;2023-05-10T16:10:06;13.80;;;4.97;;
19965;SDS011;10144;50.874;4.762;2023-05-10T16:12:33;13.57;;;5.63;;
19965;SDS011;10144;50.874;4.762;2023-05-10T16:14:59;13.52;;;5.60;;
19965;SDS011;10144;50.874;4.762;2023-05-10T16:17:25;12.80;;;5.90;;
19965;SDS011;10144;50.874;4.762;2023-05-10T16:19:50;10.75;;;4.85;;
19965;SDS011;10144;50.874;4.762;2023-05-10T16:22:16;15.00;;;5.35;;
19965;SDS011;10144;50.874;4.762;2023-05-10T16:24:42;13.93;;;5.43;;
19965;SDS011;10144;50.874;4.762;2023-05-10T16:27:07;11.13;;;5.00;;
19965;SDS011;10144;50.874;4.762;2023-05-10T16:29:33;13.60;;;4.70;;
19965;SDS011;10144;50.874;4.762;2023-05-10T16:31:59;16.13;;;4.78;;
19965;SDS011;10144;50.874;4.762;2023-05-10T16:34:24;15.82;;;4.22;;
19965;SDS011;10144;50.874;4.762;2023-05-10T16:36:50;15.38;;;4.45;;
19965;SDS011;10144;50.874;4.762;2023-05-10T16:39:16;12.77;;;4.03;;
19965;SDS011;10144;50.874;4.762;2023-05-10T16:41:41;15.15;;;4.53;;
19965;SDS011;10144;50.874;4.762;2023-05-10T16:44:07;13.18;;;4.60;;
19965;SDS011;10144;50.874;4.762;2023-05-10T16:46:33;11.85;;;4.45;;
19965;SDS011;10144;50.874;4.762;2023-05-10T16:48:58;13.60;;;4.85;;
19965;SDS011;10144;50.874;4.762;2023-05-10T16:51:25;13.88;;;4.78;;
19965;SDS011;10144;50.874;4.762;2023-05-10T16:53:52;17.38;;;5.45;;
19965;SDS011;10144;50.874;4.762;2023-05-10T16:56:17;15.57;;;5.03;;
19965;SDS011;10144;50.874;4.762;2023-05-10T16:58:45;13.13;;;4.75;;
19965;SDS011;10144;50.874;4.762;2023-05-10T17:01:13;13.15;;;5.13;;
19965;SDS011;10144;50.874;4.762;2023-05-10T17:03:41;10.93;;;4.70;;
19965;SDS011;10144;50.874;4.762;2023-05-10T17:06:07;16.70;;;5.22;;
19965;SDS011;10144;50.874;4.762;2023-05-10T17:08:33;16.77;;;5.70;;
19965;SDS011;10144;50.874;4.762;2023-05-10T17:11:02;14.05;;;5.38;;
19965;SDS011;10144;50.874;4.762;2023-05-10T17:13:28;17.88;;;5.88;;
19965;SDS011;10144;50.874;4.762;2023-05-10T17:15:54;18.30;;;6.25;;